Gotham, WI (53540)

06:53 AM CST die 07o February, anno 2016 (GMT -0600)
Tri-County Regional | | Change Station
CLOSE
Current Station
Airport
Location: Lone Rock,
Elevation: 719 ft
Nearby Weather Stations

Elev 719 ft 43.21 °N, 90.18 °W | Updated 57 minutes ago

Aequaliter Nubila
Aequaliter Nubila
37 °F
Feels Like 31 °F
N
8
Ventus Variabilis Ventus from Magis Zephyrus quam Auster

Hodie
High -- | Low -- °F
--% Chance of Precip.
Yesterday
High -- | Low -- °F
Precip. -- in
Pressio 29.76 in
Visibilitas 10.0 milia passuum
Clouds Nubes Dispersae 9000 ft
Aequaliter Nubila 11000 ft
Frigus Venti 31 °F
Frigus in quo Ros apparet 29 °F
Umor 73%
Rainfall 0.00 in
Snow Depth Not available.
7:10 AM 5:20 PM
Waning Crescent, 2% visible
METAR KLNR 071156Z AUTO 25007KT 10SM SCT090 OVC110 03/M02 A2976 RMK AO2 SLP078 T00281017 10033 20011 55016
Pressio 29.76 in
Visibilitas 10.0 milia passuum
Clouds Nubes Dispersae 9000 ft
Aequaliter Nubila 11000 ft
Frigus Venti 31 °F
Frigus in quo Ros apparet 29 °F
Umor 73%
Rainfall 0.00 in
Snow Depth Not available.
7:10 AM 5:20 PM
Waning Crescent, 2% visible
METAR KLNR 071156Z AUTO 25007KT 10SM SCT090 OVC110 03/M02 A2976 RMK AO2 SLP078 T00281017 10033 20011 55016

10-Day Weather Forecast

Almanac

Astronomy

Feb. 07, 2016 Rise Set
Actual Time
Civil Twilight
Nautical Twilight
Astronomical Twilight
Moon
Length Of Visible Light
Length of Day
Tomorrow will be .
, % of the Moon is Illuminated

Today's Extremes

State Highs State Lows

Community

WunderPhotos

Upload Photos

1,891,189 photos uploaded!

WunderBlog® & News

Nearby

Air Quality

  Air Quality AQ Index Pollutant
Not available.

Snow Depth

Station Depth Elevation

Earthquake Activity

City Distance Mag. Time & Date
Minimum magnitude displayed is 2.5.

Coastal Water Temperatures

Locus Calor

Stations

Nearby Weather Stations

Station Location Temp Frigus Venti Frigus in quo Ros apparet Umor Ventus Precip. Elev Renovata Type
                   

Watches & Warnings

There are currently no watches in effect.